Terminal Aerodrome Forecast
Issued by NWS Kansas City/Pleasant Hill, MO

Home | Current Version | Previous Version | Text Only | Print | Product List | Glossary On
Versions: 1 2 3 4 5 6 7 8 9 10 11 12 13 14 15
268
FTUS43 KEAX 111127
TAFMCI
TAF
KMCI 111127Z 1112/1212 05008KT P6SM FEW015
      TEMPO 1113/1115 BKN018
     FM111500 08007KT P6SM SCT040
     FM120100 15005KT P6SM SKC=

USA.gov is the U.S. government's official web portal to all federal, state and local government web resources and services.